createdAt,value
2016-05-17T11:16:41.589Z,16.65
2016-05-17T11:17:41.905Z,16.4
2016-05-17T11:18:41.517Z,16.25
2016-05-17T11:19:41.286Z,16.27
2016-05-17T11:20:41.429Z,16.06
2016-05-17T11:21:41.415Z,15.99
2016-05-17T11:22:41.387Z,16.06
2016-05-17T11:23:41.047Z,16.03
2016-05-17T11:24:41.346Z,16.06
2016-05-17T11:25:41.161Z,16.16
2016-05-17T11:26:41.289Z,16.14
2016-05-17T11:27:41.276Z,16.44
2016-05-17T11:28:41.247Z,16.56
2016-05-17T11:29:41.234Z,16.56
2016-05-17T11:30:41.065Z,16.53
2016-05-17T11:31:41.193Z,16.59
2016-05-17T11:32:41.180Z,16.55
2016-05-17T11:33:41.151Z,16.52
2016-05-17T11:34:41.138Z,16.58
2016-05-17T11:35:41.110Z,16.8
2016-05-17T11:36:41.815Z,16.88
2016-05-17T11:37:41.083Z,17.06
2016-05-17T11:38:41.056Z,17.23
2016-05-17T11:39:41.026Z,17.38
2016-05-17T11:40:41.014Z,17.41
2016-05-17T11:41:40.845Z,17.43
2016-05-17T11:42:40.987Z,17.35
2016-05-17T11:43:40.959Z,17.29
2016-05-17T11:44:40.789Z,17.41
2016-05-17T11:45:40.917Z,17.54
2016-05-17T11:46:40.905Z,17.81
2016-05-17T11:47:40.892Z,17.85
2016-05-17T11:48:40.550Z,17.85
2016-05-17T11:49:40.850Z,17.74
2016-05-17T11:50:40.822Z,17.87
2016-05-17T11:51:40.777Z,18.17
2016-05-17T11:52:40.811Z,18.29
2016-05-17T11:53:40.783Z,18.27
2016-05-17T11:54:40.754Z,18.29
2016-05-17T11:55:40.585Z,18.39
2016-05-17T11:56:40.744Z,18.54
2016-05-17T11:57:40.559Z,18.49
2016-05-17T11:58:40.531Z,18.33
2016-05-17T11:59:40.706Z,18.07
2016-05-17T12:00:40.504Z,18.1
2016-05-17T12:01:40.632Z,17.99
2016-05-17T12:02:40.620Z,17.95
2016-05-17T12:03:40.607Z,17.88
2016-05-17T12:04:40.593Z,17.69
2016-05-17T12:05:40.582Z,17.51
2016-05-17T12:06:40.865Z,17.67
2016-05-17T12:07:40.554Z,17.78
2016-05-17T12:08:40.511Z,17.87
2016-05-17T12:09:40.342Z,17.87
2016-05-17T12:10:40.484Z,17.89
2016-05-17T12:11:40.472Z,17.89
2016-05-17T12:12:40.287Z,17.73
2016-05-17T12:13:40.431Z,17.63
2016-05-17T12:14:40.417Z,17.69
2016-05-17T12:15:40.389Z,17.66
2016-05-17T12:16:40.392Z,17.67
2016-05-17T12:17:40.347Z,17.59
2016-05-17T12:18:40.334Z,17.62
2016-05-17T12:19:40.166Z,17.55
2016-05-17T12:20:40.309Z,17.47
2016-05-17T12:21:40.233Z,17.53
2016-05-17T12:22:40.283Z,17.51
2016-05-17T12:23:40.097Z,17.78
2016-05-17T12:24:40.225Z,17.91
2016-05-17T12:25:40.213Z,18.18
2016-05-17T12:26:40.200Z,18.36
2016-05-17T12:27:40.187Z,18.4
2016-05-17T12:28:40.002Z,18.46
2016-05-17T12:29:40.161Z,18.55
2016-05-17T12:30:40.133Z,18.79
2016-05-17T12:31:39.963Z,18.98
2016-05-17T12:32:39.935Z,19.01
2016-05-17T12:33:40.079Z,19.23
2016-05-17T12:34:39.909Z,19.43
2016-05-17T12:35:40.037Z,19.4
2016-05-17T12:36:40.273Z,19.4
2016-05-17T12:37:40.010Z,19.58
2016-05-17T12:38:39.982Z,19.38
2016-05-17T12:39:39.970Z,19.54
2016-05-17T12:40:39.972Z,19.5
2016-05-17T12:41:39.943Z,19.48
2016-05-17T12:42:39.915Z,19.87
2016-05-17T12:43:39.746Z,20.21
2016-05-17T12:44:39.904Z,20.46
2016-05-17T12:45:39.892Z,20.56
2016-05-17T12:46:39.864Z,20.64
2016-05-17T12:47:39.834Z,20.53
2016-05-17T12:48:39.821Z,20.65
2016-05-17T12:49:39.808Z,20.77
2016-05-17T12:50:39.795Z,20.96
2016-05-17T12:51:40.111Z,20.89
2016-05-17T12:52:40.394Z,20.65
2016-05-17T12:53:39.741Z,20.61
2016-05-17T12:54:39.728Z,20.65
2016-05-17T12:55:39.731Z,20.47
2016-05-17T12:56:39.547Z,20.43
2016-05-17T12:57:39.689Z,20.58
2016-05-17T12:58:39.676Z,20.9
2016-05-17T12:59:39.663Z,21.16
2016-05-17T13:00:39.651Z,21.29
2016-05-17T13:01:39.622Z,21.38
2016-05-17T13:02:39.610Z,21.48
2016-05-17T13:03:39.612Z,21.41
2016-05-17T13:04:39.583Z,21.45
2016-05-17T13:05:39.571Z,21.19
2016-05-17T13:06:39.542Z,21.2
2016-05-17T13:07:39.404Z,21.42
2016-05-17T13:08:39.515Z,21.21
2016-05-17T13:09:39.503Z,21.02
2016-05-17T13:10:39.490Z,21.13
2016-05-17T13:11:39.477Z,21.27
2016-05-17T13:12:39.464Z,21.13
2016-05-17T13:13:39.451Z,21.01
2016-05-17T13:14:39.439Z,21.06
2016-05-17T13:15:39.426Z,20.95
2016-05-17T13:16:39.398Z,20.87
2016-05-17T13:17:39.384Z,20.65
2016-05-17T13:18:39.370Z,20.39
2016-05-17T13:19:39.373Z,20.15
2016-05-17T13:20:39.345Z,20
2016-05-17T13:21:39.333Z,20.06
2016-05-17T13:22:39.163Z,19.94
2016-05-17T13:23:39.291Z,19.78
2016-05-17T13:24:39.277Z,19.73
2016-05-17T13:25:39.109Z,19.53
2016-05-17T13:26:39.252Z,19.55
2016-05-17T13:27:39.224Z,19.46
2016-05-17T13:28:39.226Z,19.02
2016-05-17T13:29:39.041Z,19.24
2016-05-17T13:30:39.184Z,19.17
2016-05-17T13:31:39.171Z,18.86
2016-05-17T13:32:39.158Z,18.67
2016-05-17T13:33:38.990Z,18.61
2016-05-17T13:34:39.117Z,18.37
2016-05-17T13:35:39.120Z,18.25
2016-05-17T13:36:39.107Z,18.12
2016-05-17T13:37:39.001Z,18.1
2016-05-17T13:38:38.737Z,18.1
2016-05-17T13:39:39.037Z,18.21
2016-05-17T13:40:39.009Z,18.19
2016-05-17T13:41:38.996Z,18.22
2016-05-17T13:42:38.982Z,18.13
2016-05-17T13:43:38.954Z,18.12
2016-05-17T13:44:38.785Z,18.17
2016-05-17T13:45:38.615Z,18.28
2016-05-17T13:46:38.900Z,18.21
2016-05-17T13:47:38.903Z,18.34
2016-05-17T13:48:38.874Z,18.34
2016-05-17T13:49:38.861Z,18.37
2016-05-17T13:50:38.848Z,18.22
2016-05-17T13:51:38.834Z,18.13
2016-05-17T13:52:38.978Z,18.15
2016-05-17T13:53:38.637Z,18.18
2016-05-17T13:54:38.609Z,18.25
2016-05-17T13:55:38.595Z,18.44
2016-05-17T13:56:38.583Z,18.65
2016-05-17T13:57:38.725Z,18.73
2016-05-17T13:58:38.542Z,18.86
2016-05-17T13:59:38.528Z,18.72
2016-05-17T14:00:38.687Z,18.82
2016-05-17T14:01:38.643Z,19.01
2016-05-17T14:02:38.474Z,19.18
2016-05-17T14:03:38.617Z,19.29
2016-05-17T14:04:38.604Z,19.15
2016-05-17T14:05:38.576Z,19.36
2016-05-17T14:06:38.563Z,19.31
2016-05-17T14:07:38.409Z,19.35
2016-05-17T14:08:38.521Z,19.47
2016-05-17T14:09:38.524Z,19.39
2016-05-17T14:10:38.479Z,19.7
2016-05-17T14:11:38.467Z,19.48
2016-05-17T14:12:38.484Z,19.39
2016-05-17T14:13:38.440Z,19.35
2016-05-17T14:14:38.428Z,19.43
2016-05-17T14:15:38.304Z,19.54
2016-05-17T14:16:38.457Z,19.42
2016-05-17T14:17:38.501Z,19.46
2016-05-17T14:18:38.514Z,19.28
2016-05-17T14:19:38.386Z,19.29
2016-05-17T14:20:38.535Z,19.14
2016-05-17T14:21:38.537Z,19.15
2016-05-17T14:22:38.555Z,19.08
2016-05-17T14:23:38.542Z,19.28
2016-05-17T14:24:38.387Z,19.25
2016-05-17T14:25:38.539Z,19.35
2016-05-17T14:26:38.359Z,19.29
2016-05-17T14:27:38.351Z,19.14
2016-05-17T14:28:38.484Z,19.24
2016-05-17T14:29:38.477Z,19.15
2016-05-17T14:30:38.311Z,19.17
2016-05-17T14:31:38.300Z,19.08
2016-05-17T14:32:38.429Z,19.13
2016-05-17T14:33:38.277Z,19.13
2016-05-17T14:34:38.407Z,19.24
2016-05-17T14:35:38.395Z,19.21
2016-05-17T14:36:38.382Z,19.24
2016-05-17T14:37:38.230Z,19.31
2016-05-17T14:38:38.358Z,19.31
2016-05-17T14:39:38.314Z,19.31
2016-05-17T14:40:38.301Z,19.29
2016-05-17T14:41:38.288Z,19.17
2016-05-17T14:42:38.120Z,19.06
2016-05-17T14:43:38.264Z,18.97
2016-05-17T14:44:38.251Z,18.94
2016-05-17T14:45:38.222Z,18.83
2016-05-17T14:46:38.210Z,18.68
2016-05-17T14:47:38.197Z,18.67
2016-05-17T14:48:38.168Z,18.64
2016-05-17T14:49:37.999Z,18.7
2016-05-17T14:50:37.986Z,18.72
2016-05-17T14:51:37.974Z,18.72
2016-05-17T14:52:38.101Z,18.57
2016-05-17T14:53:38.087Z,18.49
2016-05-17T14:54:38.074Z,18.52
2016-05-17T14:55:38.046Z,18.46
2016-05-17T14:56:38.034Z,18.52
2016-05-17T14:57:38.020Z,18.54
2016-05-17T14:58:38.054Z,18.64
2016-05-17T14:59:37.995Z,18.7
2016-05-17T15:00:37.809Z,18.73
2016-05-17T15:01:37.953Z,18.7
2016-05-17T15:02:37.940Z,18.7
2016-05-17T15:03:37.756Z,18.92
2016-05-17T15:04:37.898Z,19.01
2016-05-17T15:05:37.870Z,18.87
2016-05-17T15:06:37.698Z,19.05
2016-05-17T15:07:37.857Z,19.06
2016-05-17T15:08:37.828Z,19.14
2016-05-17T15:09:37.800Z,19.17
2016-05-17T15:10:37.787Z,19.2
2016-05-17T15:11:37.775Z,19.25
2016-05-17T15:12:37.589Z,19.18
2016-05-17T15:13:37.748Z,19.31
2016-05-17T15:14:37.719Z,19.29
2016-05-17T15:15:37.708Z,19.35
2016-05-17T15:16:37.678Z,19.28
2016-05-17T15:17:37.680Z,19.38
2016-05-17T15:18:37.652Z,19.4
2016-05-17T15:19:37.624Z,19.38
2016-05-17T15:20:37.470Z,19.5
2016-05-17T15:21:37.598Z,19.53
2016-05-17T15:22:37.429Z,19.58
2016-05-17T15:23:37.556Z,19.6
2016-05-17T15:24:37.543Z,19.65
2016-05-17T15:25:37.546Z,19.79
2016-05-17T15:26:37.517Z,19.65
2016-05-17T15:27:37.504Z,19.61
2016-05-17T15:28:37.476Z,19.53
2016-05-17T15:29:37.463Z,19.4
2016-05-17T15:30:37.450Z,19.51
2016-05-17T15:31:37.171Z,19.38
2016-05-17T15:32:37.409Z,19.47
2016-05-17T15:33:37.396Z,19.53
2016-05-17T15:34:37.242Z,19.57
2016-05-17T15:35:37.386Z,19.61
2016-05-17T15:36:37.342Z,19.66
2016-05-17T15:37:37.470Z,19.8
2016-05-17T15:38:37.159Z,19.8
2016-05-17T15:39:37.303Z,19.94
2016-05-17T15:40:36.978Z,19.97
2016-05-17T15:41:37.261Z,19.91
2016-05-17T15:42:37.247Z,19.91
2016-05-17T15:43:37.079Z,20.03
2016-05-17T15:44:37.223Z,19.95
2016-05-17T15:45:37.053Z,19.9
2016-05-17T15:46:37.196Z,19.94
2016-05-17T15:47:37.011Z,20.03
2016-05-17T15:48:37.139Z,19.79
2016-05-17T15:49:37.142Z,19.88
2016-05-17T15:50:37.114Z,19.78
2016-05-17T15:51:37.100Z,19.55
2016-05-17T15:52:37.227Z,19.48
2016-05-17T15:53:37.059Z,19.55
2016-05-17T15:54:37.062Z,19.46
2016-05-17T15:55:37.032Z,19.38
2016-05-17T15:56:37.004Z,19.43
2016-05-17T15:57:36.991Z,19.54
2016-05-17T15:58:36.979Z,19.6
2016-05-17T15:59:36.809Z,19.47
2016-05-17T16:00:36.953Z,19.57
2016-05-17T16:01:36.924Z,19.46
2016-05-17T16:02:36.911Z,19.43
2016-05-17T16:03:36.898Z,19.33
2016-05-17T16:04:36.885Z,19.36
2016-05-17T16:05:36.856Z,19.38
2016-05-17T16:06:36.844Z,19.42
2016-05-17T16:07:36.940Z,19.29
2016-05-17T16:08:36.818Z,19.21
2016-05-17T16:09:36.806Z,19.2
2016-05-17T16:10:36.792Z,19.18
2016-05-17T16:11:36.748Z,19.17
2016-05-17T16:12:36.578Z,19.02
2016-05-17T16:13:36.597Z,18.97
2016-05-17T16:14:36.553Z,18.9
2016-05-17T16:15:36.681Z,18.83
2016-05-17T16:16:36.683Z,18.68
2016-05-17T16:17:36.655Z,18.65
2016-05-17T16:18:36.642Z,18.84
2016-05-17T16:19:36.630Z,18.8
2016-05-17T16:20:38.038Z,18.76
2016-05-17T16:21:36.588Z,18.84
2016-05-17T16:22:36.684Z,18.87
2016-05-17T16:23:36.561Z,18.97
2016-05-17T16:24:36.549Z,18.84
2016-05-17T16:25:36.396Z,19.02
2016-05-17T16:26:36.352Z,19.1
2016-05-17T16:27:36.493Z,19.18
2016-05-17T16:28:36.325Z,19.08
2016-05-17T16:29:36.468Z,19.21
2016-05-17T16:30:36.424Z,19.25
2016-05-17T16:31:36.427Z,19.25
2016-05-17T16:32:36.415Z,19.24
2016-05-17T16:33:36.384Z,19.23
2016-05-17T16:34:36.372Z,19.29
2016-05-17T16:35:36.360Z,19.28
2016-05-17T16:36:36.331Z,19.24
2016-05-17T16:37:36.162Z,19.31
2016-05-17T16:38:36.289Z,19.21
2016-05-17T16:39:36.292Z,19.14
2016-05-17T16:40:36.123Z,19.01
2016-05-17T16:41:36.250Z,19.1
2016-05-17T16:42:36.237Z,19.06
2016-05-17T16:43:36.209Z,19.1
2016-05-17T16:44:36.212Z,19.08
2016-05-17T16:45:36.183Z,19.1
2016-05-17T16:46:36.155Z,18.91
2016-05-17T16:47:36.142Z,18.73
2016-05-17T16:48:36.129Z,18.72
2016-05-17T16:49:36.116Z,18.7
2016-05-17T16:50:36.087Z,18.72
2016-05-17T16:51:36.074Z,18.7
2016-05-17T16:52:36.014Z,18.62
2016-05-17T16:53:36.049Z,18.5
2016-05-17T16:54:36.036Z,18.54
2016-05-17T16:55:36.007Z,18.54
2016-05-17T16:56:35.682Z,18.43
2016-05-17T16:57:35.966Z,18.42
2016-05-17T16:58:35.969Z,18.4
2016-05-17T16:59:35.940Z,18.4
2016-05-17T17:00:35.910Z,18.44
2016-05-17T17:01:35.898Z,18.39
2016-05-17T17:02:35.885Z,18.22
2016-05-17T17:03:35.873Z,18.21
2016-05-17T17:04:35.687Z,18.25
2016-05-17T17:05:35.674Z,18.25
2016-05-17T17:06:35.646Z,18.33
2016-05-17T17:07:35.790Z,18.39
2016-05-17T17:08:35.777Z,18.42
2016-05-17T17:09:35.747Z,18.42
2016-05-17T17:10:35.734Z,18.34
2016-05-17T17:11:35.722Z,18.36
2016-05-17T17:12:35.553Z,18.34
2016-05-17T17:13:35.681Z,18.37
2016-05-17T17:14:35.668Z,18.37
2016-05-17T17:15:35.639Z,18.36
2016-05-17T17:16:35.626Z,18.33
2016-05-17T17:17:35.614Z,18.37
2016-05-17T17:18:35.601Z,18.34
2016-05-17T17:19:35.572Z,18.24
2016-05-17T17:20:35.558Z,18.17
2016-05-17T17:21:35.374Z,18.02
2016-05-17T17:22:35.533Z,17.94
2016-05-17T17:23:35.520Z,17.87
2016-05-17T17:24:35.491Z,17.89
2016-05-17T17:25:35.463Z,17.89
2016-05-17T17:26:35.435Z,17.76
2016-05-17T17:27:35.422Z,17.81
2016-05-17T17:28:35.408Z,17.84
2016-05-17T17:29:35.396Z,17.79
2016-05-17T17:30:35.210Z,17.88
2016-05-17T17:31:35.354Z,17.78
2016-05-17T17:32:35.341Z,17.78
2016-05-17T17:33:35.329Z,17.81
2016-05-17T17:34:35.299Z,17.87
2016-05-17T17:35:35.130Z,17.87
2016-05-17T17:36:35.258Z,17.91
2016-05-17T17:37:35.385Z,17.91
2016-05-17T17:38:35.263Z,17.88
2016-05-17T17:39:35.203Z,17.95
2016-05-17T17:40:35.190Z,17.88
2016-05-17T17:41:35.162Z,17.97
2016-05-17T17:42:34.993Z,18.07
2016-05-17T17:43:35.136Z,18.02
2016-05-17T17:44:35.123Z,18.06
2016-05-17T17:45:35.094Z,18.03
2016-05-17T17:46:35.081Z,18
2016-05-17T17:47:35.084Z,18.04
2016-05-17T17:48:35.040Z,18.04
2016-05-17T17:49:35.012Z,18.04
2016-05-17T17:50:34.999Z,17.89
2016-05-17T17:51:34.845Z,17.94
2016-05-17T17:52:34.972Z,17.84
2016-05-17T17:53:34.960Z,17.85
2016-05-17T17:54:34.931Z,17.7
2016-05-17T17:55:34.918Z,17.63
2016-05-17T17:56:34.750Z,17.63
2016-05-17T17:57:34.893Z,17.67
2016-05-17T17:58:34.863Z,17.66
2016-05-17T17:59:34.852Z,17.63
2016-05-17T18:00:34.822Z,17.63
2016-05-17T18:01:34.653Z,17.55
2016-05-17T18:02:34.485Z,17.5
2016-05-17T18:03:34.752Z,17.48
2016-05-17T18:04:34.755Z,17.46
2016-05-17T18:05:34.571Z,17.5
2016-05-17T18:06:34.713Z,17.51
2016-05-17T18:07:34.576Z,17.38
2016-05-17T18:08:34.688Z,17.28
2016-05-17T18:09:34.659Z,17.28
2016-05-17T18:10:34.474Z,17.38
2016-05-17T18:11:34.617Z,17.26
2016-05-17T18:12:34.605Z,17.22
2016-05-17T18:13:34.576Z,17.25
2016-05-17T18:14:34.563Z,17.11
2016-05-17T18:15:34.582Z,17.08
2016-05-17T18:16:34.522Z,17.03
2016-05-17T18:17:34.508Z,16.99
2016-05-17T18:18:34.481Z,16.98
2016-05-17T18:19:34.311Z,16.92
2016-05-17T18:20:34.470Z,16.92
2016-05-17T18:21:34.425Z,16.8
2016-05-17T18:22:34.663Z,16.74
2016-05-17T18:23:34.244Z,16.67
2016-05-17T18:24:34.386Z,16.67
2016-05-17T18:25:34.358Z,16.55
2016-05-17T18:26:34.330Z,16.55
2016-05-17T18:27:34.161Z,16.65
2016-05-17T18:28:34.305Z,16.55
2016-05-17T18:29:34.119Z,16.55
2016-05-17T18:30:34.107Z,16.45
2016-05-17T18:31:34.078Z,16.4
2016-05-17T18:32:34.221Z,16.27
2016-05-17T18:33:34.051Z,16.3
2016-05-17T18:34:34.180Z,16.31
2016-05-17T18:35:34.151Z,16.3
2016-05-17T18:36:34.154Z,16.12
2016-05-17T18:37:34.125Z,16.11
2016-05-17T18:38:34.112Z,15.97
2016-05-17T18:39:34.084Z,16.01
2016-05-17T18:40:34.071Z,15.97
2016-05-17T18:41:34.043Z,15.99
2016-05-17T18:42:34.029Z,15.93
2016-05-17T18:43:34.001Z,15.89
2016-05-17T18:44:33.987Z,15.85
2016-05-17T18:45:33.959Z,15.76
2016-05-17T18:46:33.790Z,15.79
2016-05-17T18:47:33.934Z,15.74
2016-05-17T18:48:33.905Z,15.68
2016-05-17T18:49:34.532Z,15.7
2016-05-17T18:50:33.550Z,15.67
2016-05-17T18:51:33.850Z,15.54
2016-05-17T18:52:33.681Z,15.56
2016-05-17T18:53:33.809Z,15.49
2016-05-17T18:54:49.889Z,15.42
2016-05-17T18:55:33.767Z,15.46
2016-05-17T18:56:33.754Z,15.28
2016-05-17T18:57:41.397Z,15.3
2016-05-17T18:58:39.057Z,15.3
2016-05-17T18:59:33.700Z,15.26
2016-05-17T19:00:33.672Z,15.2
2016-05-17T19:01:33.644Z,15.17
2016-05-17T19:02:33.630Z,15.17
2016-05-17T19:03:33.601Z,15.17
2016-05-17T19:04:33.588Z,14.99
2016-05-17T19:05:33.419Z,15.03
2016-05-17T19:06:33.562Z,15.03
2016-05-17T19:07:33.377Z,14.88
2016-05-17T19:08:33.505Z,14.9
2016-05-17T19:09:33.493Z,14.81
2016-05-17T19:10:33.324Z,14.86
2016-05-17T19:11:33.310Z,14.69
2016-05-17T19:12:33.423Z,14.74
2016-05-17T19:13:33.409Z,14.65
2016-05-17T19:14:33.396Z,14.72
2016-05-17T19:15:33.212Z,14.65
2016-05-17T19:16:33.356Z,14.54
2016-05-17T19:17:33.170Z,14.53
2016-05-17T19:18:33.156Z,14.56
2016-05-17T19:19:33.128Z,14.53
2016-05-17T19:20:33.272Z,14.5
2016-05-17T19:21:33.244Z,14.47
2016-05-17T19:22:33.074Z,14.43
2016-05-17T19:23:33.234Z,14.39
2016-05-17T19:24:33.173Z,14.38
2016-05-17T19:25:33.176Z,14.27
2016-05-17T19:26:33.147Z,14.32
2016-05-17T19:27:33.119Z,14.25
2016-05-17T19:28:33.106Z,14.19
2016-05-17T19:29:33.077Z,14.21
2016-05-17T19:30:33.064Z,14.16
2016-05-17T19:31:32.896Z,14.12
2016-05-17T19:32:33.039Z,14.12
2016-05-17T19:33:33.010Z,14.07
2016-05-17T19:34:32.982Z,14.01
2016-05-17T19:35:32.952Z,14.07
2016-05-17T19:36:32.940Z,14.12
2016-05-17T19:37:32.927Z,14.01
2016-05-17T19:38:32.899Z,14.12
2016-05-17T19:39:32.871Z,14.02
2016-05-17T19:40:32.873Z,14.01
2016-05-17T19:41:32.829Z,14.14
2016-05-17T19:42:32.815Z,14.09
2016-05-17T19:43:32.803Z,14.14
2016-05-17T19:44:32.790Z,14.21
2016-05-17T19:45:32.762Z,14.13
2016-05-17T19:46:32.732Z,14.24
2016-05-17T19:47:32.704Z,14.27
2016-05-17T19:48:32.691Z,14.28
2016-05-17T19:49:32.678Z,14.27
2016-05-17T19:50:32.650Z,14.28
2016-05-17T19:51:32.621Z,14.28
2016-05-17T19:52:32.358Z,14.32
2016-05-17T19:53:33.017Z,14.35
2016-05-17T19:54:32.583Z,14.39
2016-05-17T19:55:32.553Z,14.43
2016-05-17T19:56:32.541Z,14.47
2016-05-17T19:57:32.387Z,14.43
2016-05-17T19:58:32.483Z,14.5
2016-05-17T19:59:32.472Z,14.42
2016-05-17T20:00:32.442Z,14.43
2016-05-17T20:01:32.429Z,14.46
2016-05-17T20:02:32.401Z,14.5
2016-05-17T20:03:32.388Z,14.44
2016-05-17T20:04:32.359Z,14.42
2016-05-17T20:05:32.190Z,14.42
2016-05-17T20:06:32.318Z,14.46
2016-05-17T20:07:32.539Z,14.38
2016-05-17T20:08:32.276Z,14.29
2016-05-17T20:09:32.107Z,14.31
2016-05-17T20:10:32.251Z,14.27
2016-05-17T20:11:32.207Z,14.28
2016-05-17T20:12:32.209Z,14.17
2016-05-17T20:13:32.180Z,14.2
2016-05-17T20:14:32.168Z,14.16
2016-05-17T20:15:32.139Z,14.1
2016-05-17T20:16:31.953Z,14.12
2016-05-17T20:17:32.098Z,14.04
2016-05-17T20:18:32.068Z,13.95
2016-05-17T20:19:32.071Z,13.88
2016-05-17T20:20:32.027Z,13.92
2016-05-17T20:21:32.014Z,13.87
2016-05-17T20:22:32.814Z,13.79
2016-05-17T20:23:31.973Z,13.8
2016-05-17T20:24:33.195Z,13.7
2016-05-17T20:25:31.932Z,13.67
2016-05-17T20:26:31.919Z,13.69
2016-05-17T20:27:31.889Z,13.63
2016-05-17T20:28:31.861Z,13.56
2016-05-17T20:29:31.848Z,13.58
2016-05-17T20:30:31.820Z,13.56
2016-05-17T20:31:31.807Z,13.52
2016-05-17T20:32:31.638Z,13.4
2016-05-17T20:33:31.608Z,13.38
2016-05-17T20:34:31.752Z,13.41
2016-05-17T20:35:31.568Z,13.37
2016-05-17T20:36:31.539Z,13.3
2016-05-17T20:37:31.791Z,13.32
2016-05-17T20:38:31.497Z,13.36
2016-05-17T20:39:31.641Z,13.25
2016-05-17T20:40:31.612Z,13.38
2016-05-17T20:41:31.584Z,13.38
2016-05-17T20:42:31.571Z,13.43
2016-05-17T20:43:31.557Z,13.4
2016-05-17T20:44:31.451Z,13.41
2016-05-17T20:45:31.516Z,13.54
2016-05-17T20:46:31.488Z,13.55
2016-05-17T20:47:31.475Z,13.58
2016-05-17T20:48:31.446Z,13.67
2016-05-17T20:49:31.417Z,13.73
2016-05-17T20:50:31.404Z,13.7
2016-05-17T20:51:31.376Z,13.7
2016-05-17T20:52:31.379Z,13.76
2016-05-17T20:53:31.195Z,13.87
2016-05-17T20:54:31.323Z,13.92
2016-05-17T20:55:31.136Z,13.95
2016-05-17T20:56:31.280Z,13.91
2016-05-17T20:57:31.267Z,13.99
2016-05-17T20:58:31.223Z,13.96
2016-05-17T20:59:31.054Z,14.06
2016-05-17T21:00:31.181Z,13.99
2016-05-17T21:01:31.169Z,13.94
2016-05-17T21:02:31.141Z,13.89
2016-05-17T21:03:31.127Z,13.88
2016-05-17T21:04:31.099Z,13.81
2016-05-17T21:05:30.774Z,13.84
2016-05-17T21:06:31.073Z,13.87
2016-05-17T21:07:30.888Z,13.83
2016-05-17T21:08:30.860Z,13.8
2016-05-17T21:09:30.846Z,13.79
2016-05-17T21:10:30.991Z,13.74
2016-05-17T21:11:30.976Z,13.76
2016-05-17T21:12:30.776Z,13.74
2016-05-17T21:13:30.921Z,13.71
2016-05-17T21:14:30.891Z,13.7
2016-05-17T21:15:30.879Z,13.67
2016-05-17T21:16:30.694Z,13.65
2016-05-17T21:17:30.821Z,13.59
2016-05-17T21:18:30.809Z,13.52
2016-05-17T21:19:30.623Z,13.55
2016-05-17T21:20:30.610Z,13.58
2016-05-17T21:21:30.738Z,13.46
2016-05-17T21:22:30.865Z,13.52
2016-05-17T21:23:30.697Z,13.49
2016-05-17T21:24:30.667Z,13.33
2016-05-17T21:25:30.656Z,13.4
2016-05-17T21:26:30.486Z,13.3
2016-05-17T21:27:30.614Z,13.37
2016-05-17T21:28:30.601Z,13.37
2016-05-17T21:29:30.572Z,13.25
2016-05-17T21:30:30.544Z,13.14
2016-05-17T21:31:30.530Z,13.22
2016-05-17T21:32:30.518Z,13.17
2016-05-17T21:33:30.317Z,13.21
2016-05-17T21:34:30.461Z,13.11
2016-05-17T21:35:30.291Z,13.03
2016-05-17T21:36:30.419Z,13.15
2016-05-17T21:37:30.343Z,13.11
2016-05-17T21:38:30.378Z,13.14
2016-05-17T21:39:30.349Z,13.17
2016-05-17T21:40:30.321Z,13.17
2016-05-17T21:41:32.104Z,13.12
2016-05-17T21:42:30.279Z,13.11
2016-05-17T21:43:30.266Z,13.09
2016-05-17T21:44:30.237Z,13.09
2016-05-17T21:45:30.209Z,13.09
2016-05-17T21:46:30.071Z,13.02
2016-05-17T21:47:30.168Z,13.11
2016-05-17T21:48:30.154Z,13.04
2016-05-17T21:49:30.126Z,13.04
2016-05-17T21:50:30.097Z,13.09
2016-05-17T21:51:30.085Z,13.06
2016-05-17T21:52:29.900Z,13.02
2016-05-17T21:53:30.042Z,13.04
2016-05-17T21:54:30.015Z,13.18
2016-05-17T21:55:30.033Z,13.02
2016-05-17T21:56:29.972Z,13.15
2016-05-17T21:57:29.788Z,13.14
2016-05-17T21:58:29.932Z,13.14
2016-05-17T21:59:29.903Z,13.11
2016-05-17T22:00:29.889Z,13.15
2016-05-17T22:01:29.862Z,13.17
2016-05-17T22:02:29.848Z,13.06
2016-05-17T22:03:29.820Z,13.15
2016-05-17T22:04:29.807Z,13.17
2016-05-17T22:05:29.779Z,13.06
2016-05-17T22:06:29.750Z,13.09
2016-05-17T22:07:30.050Z,13.04
2016-05-17T22:08:29.708Z,12.99
2016-05-17T22:09:29.524Z,13.04
2016-05-17T22:10:29.667Z,13.06
2016-05-17T22:11:29.638Z,12.99
2016-05-17T22:12:29.625Z,12.88
2016-05-17T22:13:29.596Z,13.07
2016-05-17T22:14:29.568Z,12.88
2016-05-17T22:15:29.555Z,12.96
2016-05-17T22:16:29.543Z,12.87
2016-05-17T22:17:29.513Z,12.87
2016-05-17T22:18:29.345Z,12.88
2016-05-17T22:19:29.457Z,12.93
2016-05-17T22:20:29.443Z,12.95
2016-05-17T22:21:29.415Z,12.85
2016-05-17T22:22:29.402Z,12.89
2016-05-17T22:23:29.373Z,12.93
2016-05-17T22:24:29.346Z,12.82
2016-05-17T22:25:29.176Z,12.81
2016-05-17T22:26:29.304Z,12.85
2016-05-17T22:27:29.291Z,12.74
2016-05-17T22:28:29.262Z,12.75
2016-05-17T22:29:29.250Z,12.78
2016-05-17T22:30:29.221Z,12.7
2016-05-17T22:31:29.036Z,12.7
2016-05-17T22:32:29.023Z,12.64
2016-05-17T22:33:29.151Z,12.74
2016-05-17T22:34:29.138Z,12.7
2016-05-17T22:35:29.109Z,12.62
2016-05-17T22:36:29.097Z,12.56
2016-05-17T22:37:28.958Z,12.57
2016-05-17T22:38:37.992Z,12.56
2016-05-17T22:39:28.870Z,12.45
2016-05-17T22:40:28.982Z,12.42
2016-05-17T22:41:28.828Z,12.34
2016-05-17T22:42:28.955Z,12.3
2016-05-17T22:43:28.772Z,12.24
2016-05-17T22:44:28.899Z,12.2
2016-05-17T22:45:28.885Z,12.19
2016-05-17T22:46:28.874Z,12.12
2016-05-17T22:47:28.844Z,12.04
2016-05-17T22:48:28.816Z,12.04
2016-05-17T22:49:28.787Z,11.97
2016-05-17T22:50:28.619Z,11.93
2016-05-17T22:51:28.746Z,11.86
2016-05-17T22:52:28.577Z,11.89
2016-05-17T22:53:28.704Z,11.87
2016-05-17T22:54:28.675Z,11.96
2016-05-17T22:55:28.663Z,11.93
2016-05-17T22:56:28.634Z,11.96
2016-05-17T22:57:28.621Z,11.87
2016-05-17T22:58:28.436Z,11.82
2016-05-17T22:59:28.581Z,11.85
2016-05-17T23:00:28.395Z,11.96
2016-05-17T23:01:28.381Z,11.87
2016-05-17T23:02:28.494Z,11.89
2016-05-17T23:03:28.310Z,11.96
2016-05-17T23:04:28.469Z,11.9
2016-05-17T23:05:28.283Z,11.99
2016-05-17T23:06:28.427Z,11.97
2016-05-17T23:07:28.397Z,12.01
2016-05-17T23:08:28.245Z,12.02
2016-05-17T23:09:28.341Z,12.09
2016-05-17T23:10:28.344Z,12.08
2016-05-17T23:11:28.300Z,12.06
2016-05-17T23:12:28.287Z,12.12
2016-05-17T23:13:28.258Z,12.12
2016-05-17T23:14:28.260Z,12.08
2016-05-17T23:15:28.202Z,12.05
2016-05-17T23:16:28.032Z,12.06
2016-05-17T23:17:28.160Z,11.99
2016-05-17T23:18:28.146Z,12.05
2016-05-17T23:19:28.118Z,12.02
2016-05-17T23:20:28.090Z,12.05
2016-05-17T23:21:28.077Z,11.89
2016-05-17T23:22:27.921Z,11.89
2016-05-17T23:23:28.123Z,11.9
2016-05-17T23:24:28.156Z,11.97
2016-05-17T23:25:27.998Z,11.89
2016-05-17T23:26:28.030Z,11.93
2016-05-17T23:27:28.174Z,11.85
2016-05-17T23:28:28.004Z,11.86
2016-05-17T23:29:28.164Z,11.86
2016-05-17T23:30:28.166Z,11.86
2016-05-17T23:31:28.153Z,11.86
2016-05-17T23:32:28.131Z,11.86
2016-05-17T23:33:27.795Z,11.85
2016-05-17T23:34:28.100Z,11.82
2016-05-17T23:35:28.078Z,11.9
2016-05-17T23:36:28.070Z,11.85
2016-05-17T23:37:28.419Z,11.85
2016-05-17T23:38:27.877Z,11.8
2016-05-17T23:39:28.007Z,11.8
2016-05-17T23:40:27.981Z,11.72
2016-05-17T23:41:27.970Z,11.75
2016-05-17T23:42:27.927Z,11.72
2016-05-17T23:43:27.930Z,11.74
2016-05-17T23:44:27.903Z,11.7
2016-05-17T23:45:27.875Z,11.67
2016-05-17T23:46:27.691Z,11.59
2016-05-17T23:47:27.521Z,11.67
2016-05-17T23:48:27.805Z,11.54
2016-05-17T23:49:27.777Z,11.47
2016-05-17T23:50:27.608Z,11.52
2016-05-17T23:51:27.735Z,11.49
2016-05-17T23:52:27.753Z,11.39
2016-05-17T23:53:27.695Z,11.5
2016-05-17T23:54:27.509Z,11.41
2016-05-17T23:55:27.652Z,11.43
2016-05-17T23:56:27.483Z,11.39
2016-05-17T23:57:27.611Z,11.35
2016-05-17T23:58:27.583Z,11.25
2016-05-17T23:59:27.569Z,11.28
